Terminal Aerodrome Forecast
Issued by NWS

Home | Current Version | Previous Version | Text Only | Print | Product List | Glossary On
Versions: 1 2 3 4 5 6 7 8 9 10 11 12 13
000
FTUS46 KPDT 111100
TAFRDM
TAF
KRDM 111120Z 1112/1212 17005KT P6SM FEW250
     FM111900 33007KT P6SM FEW090 SCT150
     FM112200 32008KT P6SM VCTS BKN080CB BKN150
     FM120600 16005KT P6SM VCTS BKN100CB BKN150=

USA.gov is the U.S. government's official web portal to all federal, state and local government web resources and services.